createdAt,value
2022-09-22T00:01:27.134Z,8.10
2022-09-22T00:04:00.498Z,5.03
2022-09-22T00:06:33.530Z,4.20
2022-09-22T00:09:02.235Z,4.32
2022-09-22T00:11:36.439Z,4.53
2022-09-22T00:14:22.256Z,4.25
2022-09-22T00:16:58.907Z,4.18
2022-09-22T00:19:31.697Z,5.07
2022-09-22T00:21:59.380Z,5.32
2022-09-22T00:24:27.275Z,4.93
2022-09-22T00:26:59.216Z,4.38
2022-09-22T00:29:28.798Z,5.15
2022-09-22T00:31:56.145Z,5.32
2022-09-22T00:34:26.101Z,4.75
2022-09-22T00:36:53.220Z,4.53
2022-09-22T00:39:20.530Z,4.07
2022-09-22T00:41:51.103Z,4.03
2022-09-22T00:44:26.971Z,8.07
2022-09-22T00:46:58.812Z,5.65
2022-09-22T00:49:46.995Z,3.95
2022-09-22T00:52:18.948Z,4.32
2022-09-22T00:54:46.686Z,3.70
2022-09-22T00:57:24.111Z,3.97
2022-09-22T00:59:53.773Z,3.55
2022-09-22T01:02:23.769Z,6.55
2022-09-22T01:04:52.609Z,5.57
2022-09-22T01:07:22.824Z,6.22
2022-09-22T01:09:50.108Z,5.55
2022-09-22T01:12:17.290Z,5.82
2022-09-22T01:15:09.591Z,4.30
2022-09-22T01:18:07.888Z,4.88
2022-09-22T01:21:01.386Z,4.72
2022-09-22T01:23:47.372Z,3.55
2022-09-22T01:26:49.462Z,3.83
2022-09-22T01:29:50.035Z,2.70
2022-09-22T01:32:27.215Z,3.35
2022-09-22T01:35:04.229Z,2.55
2022-09-22T01:37:42.927Z,3.95
2022-09-22T01:40:18.866Z,1.92
2022-09-22T01:42:58.501Z,1.88
2022-09-22T01:45:30.150Z,2.95
2022-09-22T01:48:05.288Z,2.78
2022-09-22T01:50:35.037Z,3.45
2022-09-22T01:53:08.809Z,4.03
2022-09-22T01:55:41.131Z,2.25
2022-09-22T01:58:15.141Z,2.58
2022-09-22T02:00:50.456Z,2.72
2022-09-22T02:03:27.809Z,3.20
2022-09-22T02:06:04.340Z,4.28
2022-09-22T02:08:38.812Z,2.80
2022-09-22T02:11:14.010Z,3.42
2022-09-22T02:13:42.926Z,2.45
2022-09-22T02:16:11.867Z,2.50
2022-09-22T02:18:57.092Z,3.13
2022-09-22T02:21:29.900Z,3.85
2022-09-22T02:23:57.498Z,2.90
2022-09-22T02:26:28.457Z,2.95
2022-09-22T02:29:08.179Z,2.97
2022-09-22T02:31:38.184Z,2.10
2022-09-22T02:34:06.409Z,5.03
2022-09-22T02:36:41.193Z,3.67
2022-09-22T02:39:29.234Z,6.25
2022-09-22T02:42:45.754Z,3.67
2022-09-22T02:45:24.023Z,4.10
2022-09-22T02:48:03.095Z,4.28
2022-09-22T02:50:31.780Z,3.45
2022-09-22T02:53:03.296Z,4.30
2022-09-22T02:55:30.263Z,2.83
2022-09-22T02:57:57.331Z,4.40
2022-09-22T03:00:24.194Z,5.18
2022-09-22T03:02:51.063Z,3.80
2022-09-22T03:05:17.977Z,2.83
2022-09-22T03:07:45.027Z,3.40
2022-09-22T03:10:12.259Z,3.78
2022-09-22T03:13:08.872Z,2.72
2022-09-22T03:15:30.840Z,3.63
2022-09-22T03:17:57.950Z,3.47
2022-09-22T03:20:24.864Z,2.38
2022-09-22T03:22:51.784Z,4.85
2022-09-22T03:25:18.931Z,5.18
2022-09-22T03:27:45.875Z,2.92
2022-09-22T03:30:13.403Z,2.80
2022-09-22T03:32:40.322Z,3.20
2022-09-22T03:35:08.005Z,3.40
2022-09-22T03:37:35.022Z,2.20
2022-09-22T03:40:02.954Z,2.22
2022-09-22T03:42:29.872Z,4.80
2022-09-22T03:44:56.851Z,3.20
2022-09-22T03:47:23.803Z,3.47
2022-09-22T03:49:50.724Z,3.20
2022-09-22T03:52:17.615Z,3.95
2022-09-22T03:54:44.525Z,3.65
2022-09-22T03:57:11.398Z,3.55
2022-09-22T03:59:38.304Z,4.30
2022-09-22T04:02:05.408Z,4.82
2022-09-22T04:04:32.686Z,4.00
2022-09-22T04:07:06.123Z,4.45
2022-09-22T04:09:34.119Z,3.45
2022-09-22T04:12:01.196Z,3.05
2022-09-22T04:14:28.316Z,3.58
2022-09-22T04:16:55.282Z,2.88
2022-09-22T04:19:22.931Z,2.28
2022-09-22T04:21:54.614Z,2.72
2022-09-22T04:24:24.698Z,3.72
2022-09-22T04:27:15.554Z,3.20
2022-09-22T04:29:38.910Z,7.53
2022-09-22T04:32:06.189Z,4.80
2022-09-22T04:34:33.192Z,3.10
2022-09-22T04:37:00.115Z,3.85
2022-09-22T04:39:28.811Z,3.00
2022-09-22T04:41:55.903Z,4.40
2022-09-22T04:44:22.863Z,3.33
2022-09-22T04:46:50.503Z,5.35
2022-09-22T04:49:18.530Z,11.52
2022-09-22T04:51:45.673Z,6.15
2022-09-22T04:54:14.169Z,4.53
2022-09-22T04:56:42.113Z,5.53
2022-09-22T04:59:09.566Z,5.40
2022-09-22T05:01:36.619Z,5.35
2022-09-22T05:04:03.867Z,6.88
2022-09-22T05:06:31.271Z,5.97
2022-09-22T05:08:58.705Z,11.43
2022-09-22T05:11:25.634Z,10.27
2022-09-22T05:13:52.604Z,9.93
2022-09-22T05:16:20.169Z,8.40
2022-09-22T05:18:50.320Z,10.50
2022-09-22T05:21:18.971Z,10.65
2022-09-22T05:23:46.537Z,13.95
2022-09-22T05:26:13.764Z,12.38
2022-09-22T05:28:41.049Z,16.08
2022-09-22T05:31:08.019Z,14.38
2022-09-22T05:33:35.032Z,12.73
2022-09-22T05:36:02.527Z,13.80
2022-09-22T05:38:29.420Z,12.60
2022-09-22T05:40:56.380Z,12.48
2022-09-22T05:43:23.255Z,17.17
2022-09-22T05:45:50.241Z,19.92
2022-09-22T05:48:17.337Z,14.40
2022-09-22T05:50:45.469Z,19.50
2022-09-22T05:53:13.380Z,16.98
2022-09-22T05:55:41.319Z,18.23
2022-09-22T05:58:11.821Z,16.63
2022-09-22T06:00:40.046Z,13.30
2022-09-22T06:03:08.106Z,14.05
2022-09-22T06:05:37.816Z,11.50
2022-09-22T06:08:06.559Z,15.07
2022-09-22T06:10:35.759Z,12.80
2022-09-22T06:13:04.726Z,10.65
2022-09-22T06:15:34.027Z,11.63
2022-09-22T06:18:02.329Z,14.80
2022-09-22T06:20:29.603Z,12.35
2022-09-22T06:22:56.766Z,10.82
2022-09-22T06:25:23.873Z,10.77
2022-09-22T06:28:05.775Z,13.80
2022-09-22T06:30:34.723Z,19.17
2022-09-22T06:33:02.128Z,15.77
2022-09-22T06:35:33.821Z,14.05
2022-09-22T06:38:00.761Z,15.75
2022-09-22T06:40:28.247Z,15.02
2022-09-22T06:42:59.992Z,17.73
2022-09-22T06:45:27.323Z,32.25
2022-09-22T06:47:58.879Z,23.83
2022-09-22T06:50:31.198Z,18.88
2022-09-22T06:53:03.734Z,27.00
2022-09-22T06:55:31.506Z,17.55
2022-09-22T06:57:59.077Z,15.57
2022-09-22T07:00:32.916Z,14.23
2022-09-22T07:03:25.569Z,13.18
2022-09-22T07:06:03.083Z,12.43
2022-09-22T07:08:33.001Z,7.53
2022-09-22T07:11:02.587Z,5.72
2022-09-22T07:13:31.750Z,2.67
2022-09-22T07:16:03.396Z,3.25
2022-09-22T07:18:30.896Z,2.65
2022-09-22T07:21:35.374Z,3.20
2022-09-22T07:24:02.805Z,3.75
2022-09-22T07:26:32.649Z,3.67
2022-09-22T07:29:01.836Z,4.85
2022-09-22T07:31:32.026Z,5.80
2022-09-22T07:34:01.961Z,3.13
2022-09-22T07:36:31.519Z,3.78
2022-09-22T07:39:03.707Z,3.03
2022-09-22T07:41:32.022Z,4.45
2022-09-22T07:44:19.376Z,12.40
2022-09-22T07:46:46.671Z,5.45
2022-09-22T07:49:15.346Z,4.68
2022-09-22T07:51:42.351Z,10.95
2022-09-22T07:54:09.615Z,26.10
2022-09-22T07:56:41.849Z,7.72
2022-09-22T07:59:11.114Z,3.78
2022-09-22T08:01:42.161Z,2.58
2022-09-22T08:04:12.754Z,4.30
2022-09-22T08:06:39.631Z,5.65
2022-09-22T08:09:07.045Z,37.10
2022-09-22T08:11:34.505Z,2.85
2022-09-22T08:14:04.917Z,4.20
2022-09-22T08:16:39.075Z,2.65
2022-09-22T08:19:12.591Z,4.85
2022-09-22T08:21:48.719Z,2.80
2022-09-22T08:24:21.582Z,3.97
2022-09-22T08:26:53.173Z,9.25
2022-09-22T08:29:20.577Z,5.57
2022-09-22T08:31:49.537Z,2.33
2022-09-22T08:34:18.106Z,3.15
2022-09-22T08:36:49.344Z,3.17
2022-09-22T08:39:17.728Z,3.05
2022-09-22T08:42:20.874Z,5.55
2022-09-22T08:45:01.293Z,2.70
2022-09-22T08:48:12.069Z,1.95
2022-09-22T08:51:19.857Z,4.93
2022-09-22T08:53:49.764Z,12.85
2022-09-22T08:56:33.671Z,13.57
2022-09-22T08:59:15.271Z,6.43
2022-09-22T09:01:52.490Z,5.03
2022-09-22T09:04:53.505Z,3.75
2022-09-22T09:07:43.732Z,3.92
2022-09-22T09:10:32.966Z,1.40
2022-09-22T09:13:14.732Z,4.40
2022-09-22T09:16:08.606Z,3.97
2022-09-22T09:18:41.739Z,2.53
2022-09-22T09:21:14.255Z,2.22
2022-09-22T09:26:41.491Z,1.83
2022-09-22T09:29:17.885Z,3.47
2022-09-22T09:31:52.588Z,2.58
2022-09-22T09:34:23.818Z,2.03
2022-09-22T09:36:55.382Z,1.65
2022-09-22T09:39:32.739Z,1.80
2022-09-22T09:42:02.564Z,2.22
2022-09-22T09:44:38.361Z,3.75
2022-09-22T09:47:27.512Z,3.72
2022-09-22T09:49:54.922Z,2.58
2022-09-22T09:52:25.749Z,2.53
2022-09-22T09:54:54.451Z,1.92
2022-09-22T09:57:27.459Z,2.47
2022-09-22T10:00:34.828Z,1.42
2022-09-22T10:03:28.697Z,3.40
2022-09-22T10:06:06.524Z,0.93
2022-09-22T10:08:43.474Z,4.20
2022-09-22T10:11:12.690Z,2.58
2022-09-22T10:13:40.853Z,2.45
2022-09-22T10:16:16.685Z,2.55
2022-09-22T10:18:43.581Z,4.13
2022-09-22T10:21:23.005Z,3.67
2022-09-22T10:24:02.056Z,4.00
2022-09-22T10:26:30.746Z,3.30
2022-09-22T10:29:12.776Z,2.35
2022-09-22T10:32:03.940Z,2.22
2022-09-22T10:34:36.505Z,4.22
2022-09-22T10:37:10.716Z,2.92
2022-09-22T10:39:45.109Z,3.40
2022-09-22T10:42:25.966Z,1.75
2022-09-22T10:44:54.769Z,31.27
2022-09-22T10:47:32.515Z,32.78
2022-09-22T10:50:27.882Z,21.00
2022-09-22T10:53:13.561Z,42.45
2022-09-22T10:56:18.955Z,11.63
2022-09-22T10:59:07.437Z,2.85
2022-09-22T11:01:49.748Z,6.10
2022-09-22T11:04:22.486Z,3.05
2022-09-22T11:10:09.162Z,2.58
2022-09-22T11:13:16.581Z,1.50
2022-09-22T11:16:02.368Z,1.52
2022-09-22T11:19:03.198Z,3.17
2022-09-22T11:21:55.030Z,1.63
2022-09-22T11:24:40.231Z,4.18
2022-09-22T11:27:36.487Z,2.13
2022-09-22T11:30:20.703Z,3.22
2022-09-22T11:33:25.721Z,2.42
2022-09-22T11:35:58.269Z,2.60
2022-09-22T11:38:59.107Z,2.05
2022-09-22T11:41:32.102Z,3.53
2022-09-22T11:44:26.118Z,4.20
2022-09-22T11:47:37.973Z,1.40
2022-09-22T11:50:23.641Z,1.90
2022-09-22T11:53:23.229Z,2.75
2022-09-22T11:55:59.163Z,2.92
2022-09-22T11:58:29.245Z,2.85
2022-09-22T12:01:10.875Z,1.85
2022-09-22T12:03:59.024Z,2.08
2022-09-22T12:06:31.935Z,2.03
2022-09-22T12:09:04.049Z,1.48
2022-09-22T12:11:35.924Z,1.48
2022-09-22T12:14:04.542Z,1.08
2022-09-22T12:16:39.339Z,1.70
2022-09-22T12:19:15.148Z,4.53
2022-09-22T12:22:12.509Z,1.90
2022-09-22T12:24:39.957Z,1.60
2022-09-22T12:27:20.723Z,3.38
2022-09-22T12:29:58.871Z,2.25
2022-09-22T12:32:39.458Z,2.00
2022-09-22T12:35:07.549Z,3.33
2022-09-22T12:37:38.393Z,1.90
2022-09-22T12:40:14.077Z,2.22
2022-09-22T12:42:43.401Z,2.45
2022-09-22T12:45:10.267Z,4.97
2022-09-22T12:47:40.994Z,2.70
2022-09-22T12:50:28.001Z,2.50
2022-09-22T12:53:02.655Z,2.47
2022-09-22T12:55:38.450Z,1.63
2022-09-22T12:58:28.127Z,1.83
2022-09-22T13:01:33.911Z,3.55
2022-09-22T13:04:16.397Z,2.03
2022-09-22T13:06:43.240Z,2.33
2022-09-22T13:09:21.442Z,1.85
2022-09-22T13:12:13.189Z,2.13
2022-09-22T13:15:19.678Z,1.70
2022-09-22T13:17:50.110Z,1.27
2022-09-22T13:20:19.221Z,2.00
2022-09-22T13:22:46.486Z,1.42
2022-09-22T13:25:31.873Z,3.40
2022-09-22T13:28:17.561Z,1.40
2022-09-22T13:30:46.104Z,1.90
2022-09-22T13:33:36.539Z,6.63
2022-09-22T13:36:23.563Z,3.03
2022-09-22T13:38:55.234Z,5.20
2022-09-22T13:41:25.721Z,2.80
2022-09-22T13:44:01.063Z,3.95
2022-09-22T13:46:33.327Z,2.90
2022-09-22T13:49:00.825Z,2.15
2022-09-22T13:51:27.920Z,1.83
2022-09-22T13:53:57.741Z,2.80
2022-09-22T13:56:26.494Z,2.67
2022-09-22T13:58:57.416Z,1.52
2022-09-22T14:01:26.937Z,4.45
2022-09-22T14:03:55.350Z,5.40
2022-09-22T14:06:26.303Z,4.70
2022-09-22T14:08:55.192Z,6.88
2022-09-22T14:11:25.697Z,5.55
2022-09-22T14:13:55.931Z,4.15
2022-09-22T14:16:47.603Z,4.90
2022-09-22T14:19:21.238Z,3.47
2022-09-22T14:22:02.990Z,2.72
2022-09-22T14:24:32.261Z,0.98
2022-09-22T14:27:04.271Z,5.78
2022-09-22T14:29:32.663Z,2.95
2022-09-22T14:32:12.904Z,5.07
2022-09-22T14:34:44.923Z,4.00
2022-09-22T14:37:41.977Z,3.28
2022-09-22T14:40:16.756Z,2.53
2022-09-22T14:42:58.709Z,2.42
2022-09-22T14:45:27.710Z,3.85
2022-09-22T14:48:34.399Z,2.75
2022-09-22T14:51:08.684Z,2.75
2022-09-22T14:53:51.691Z,1.17
2022-09-22T14:58:53.063Z,1.42
2022-09-22T15:01:41.665Z,1.50
2022-09-22T15:04:18.824Z,1.52
2022-09-22T15:06:46.877Z,1.35
2022-09-22T15:09:30.797Z,2.28
2022-09-22T15:12:02.947Z,2.20
2022-09-22T15:14:41.758Z,3.88
2022-09-22T15:18:02.166Z,2.63
2022-09-22T15:20:44.269Z,2.00
2022-09-22T15:23:20.403Z,2.00
2022-09-22T15:25:48.564Z,1.02
2022-09-22T15:28:18.664Z,1.25
2022-09-22T15:30:47.754Z,1.38
2022-09-22T15:33:16.257Z,2.08
2022-09-22T15:35:46.728Z,1.88
2022-09-22T15:38:27.643Z,2.47
2022-09-22T15:40:54.569Z,3.58
2022-09-22T15:43:24.751Z,3.17
2022-09-22T15:45:56.265Z,2.95
2022-09-22T15:48:30.181Z,2.15
2022-09-22T15:50:58.575Z,3.47
2022-09-22T15:53:26.012Z,1.92
2022-09-22T15:55:54.426Z,3.58
2022-09-22T15:58:25.819Z,2.92
2022-09-22T16:00:53.440Z,3.15
2022-09-22T16:03:23.609Z,2.88
2022-09-22T16:06:00.249Z,2.15
2022-09-22T16:08:37.512Z,2.72
2022-09-22T16:11:05.900Z,2.00
2022-09-22T16:13:33.680Z,2.97
2022-09-22T16:16:04.132Z,3.72
2022-09-22T16:18:36.407Z,3.95
2022-09-22T16:21:23.899Z,4.60
2022-09-22T16:23:50.794Z,4.35
2022-09-22T16:26:18.009Z,4.40
2022-09-22T16:28:44.879Z,7.30
2022-09-22T16:31:11.856Z,7.57
2022-09-22T16:33:38.874Z,5.40
2022-09-22T16:36:06.032Z,6.30
2022-09-22T16:38:34.587Z,8.35
2022-09-22T16:41:17.915Z,7.22
2022-09-22T16:43:45.257Z,8.35
2022-09-22T16:46:28.215Z,7.65
2022-09-22T16:51:36.545Z,10.82
2022-09-22T16:54:09.067Z,14.57
2022-09-22T16:56:39.942Z,18.15
2022-09-22T16:59:07.812Z,14.82
2022-09-22T17:01:37.914Z,14.63
2022-09-22T17:04:06.585Z,13.77
2022-09-22T17:06:33.907Z,14.73
2022-09-22T17:09:01.069Z,15.07
2022-09-22T17:11:30.432Z,9.48
2022-09-22T17:14:03.007Z,11.88
2022-09-22T17:16:37.570Z,14.13
2022-09-22T17:19:07.939Z,14.48
2022-09-22T17:21:37.382Z,12.27
2022-09-22T17:24:05.869Z,9.20
2022-09-22T17:26:37.601Z,9.50
2022-09-22T17:29:06.538Z,14.52
2022-09-22T17:31:35.986Z,15.35
2022-09-22T17:34:03.265Z,13.73
2022-09-22T17:36:30.724Z,12.25
2022-09-22T17:39:00.409Z,9.73
2022-09-22T17:41:32.728Z,10.48
2022-09-22T17:44:03.080Z,8.82
2022-09-22T17:46:35.164Z,10.15
2022-09-22T17:49:21.010Z,8.35
2022-09-22T17:52:08.385Z,10.05
2022-09-22T17:54:55.941Z,9.98
2022-09-22T17:57:33.128Z,10.07
2022-09-22T18:00:00.391Z,9.45
2022-09-22T18:02:29.799Z,8.90
2022-09-22T18:04:56.754Z,8.55
2022-09-22T18:07:25.768Z,6.85
2022-09-22T18:09:55.567Z,8.32
2022-09-22T18:12:24.774Z,10.57
2022-09-22T18:14:53.747Z,9.40
2022-09-22T18:17:28.117Z,9.57
2022-09-22T18:19:56.169Z,17.02
2022-09-22T18:22:24.889Z,12.32
2022-09-22T18:24:56.463Z,11.63
2022-09-22T18:27:27.183Z,13.27
2022-09-22T18:29:58.474Z,8.73
2022-09-22T18:32:26.972Z,12.95
2022-09-22T18:34:57.121Z,10.55
2022-09-22T18:37:25.064Z,14.15
2022-09-22T18:39:52.033Z,14.90
2022-09-22T18:42:22.828Z,14.68
2022-09-22T18:44:50.312Z,17.23
2022-09-22T18:47:19.323Z,16.30
2022-09-22T18:49:50.102Z,10.15
2022-09-22T18:52:21.655Z,15.68
2022-09-22T18:54:48.766Z,20.10
2022-09-22T18:57:15.723Z,22.83
2022-09-22T18:59:42.718Z,17.85
2022-09-22T19:02:12.023Z,11.52
2022-09-22T19:04:39.601Z,10.70
2022-09-22T19:07:25.085Z,11.50
2022-09-22T19:09:53.045Z,9.15
2022-09-22T19:12:21.687Z,7.72
2022-09-22T19:14:50.184Z,10.48
2022-09-22T19:17:18.153Z,9.02
2022-09-22T19:19:49.923Z,12.88
2022-09-22T19:22:17.135Z,9.45
2022-09-22T19:24:46.291Z,14.32
2022-09-22T19:27:18.011Z,11.13
2022-09-22T19:29:45.069Z,9.63
2022-09-22T19:32:12.062Z,9.07
2022-09-22T19:34:39.072Z,11.90
2022-09-22T19:37:07.027Z,11.85
2022-09-22T19:39:34.171Z,11.07
2022-09-22T19:42:01.135Z,10.93
2022-09-22T19:44:29.743Z,10.73
2022-09-22T19:46:57.292Z,12.30
2022-09-22T19:49:25.549Z,8.98
2022-09-22T19:51:54.086Z,10.57
2022-09-22T19:54:21.363Z,11.40
2022-09-22T19:56:48.945Z,13.80
2022-09-22T19:59:19.771Z,11.18
2022-09-22T20:01:48.174Z,9.77
2022-09-22T20:04:18.205Z,9.00
2022-09-22T20:06:46.365Z,10.50
2022-09-22T20:09:13.622Z,12.10
2022-09-22T20:11:46.133Z,14.60
2022-09-22T20:14:20.619Z,15.32
2022-09-22T20:16:59.996Z,10.93
2022-09-22T20:19:28.167Z,10.88
2022-09-22T20:22:18.871Z,13.13
2022-09-22T20:24:57.429Z,11.95
2022-09-22T20:27:29.834Z,16.48
2022-09-22T20:29:57.847Z,13.18
2022-09-22T20:32:31.674Z,13.77
2022-09-22T20:34:58.716Z,11.90
2022-09-22T20:37:26.141Z,14.32
2022-09-22T20:39:53.270Z,11.27
2022-09-22T20:42:20.286Z,13.40
2022-09-22T20:44:47.293Z,9.02
2022-09-22T20:47:16.770Z,13.70
2022-09-22T20:49:49.253Z,11.13
2022-09-22T20:52:20.150Z,12.38
2022-09-22T20:54:47.600Z,10.35
2022-09-22T20:57:14.584Z,12.32
2022-09-22T20:59:44.000Z,11.80
2022-09-22T21:02:13.098Z,9.50
2022-09-22T21:04:40.439Z,11.43
2022-09-22T21:07:07.979Z,8.25
2022-09-22T21:09:53.312Z,8.55
2022-09-22T21:12:20.292Z,10.43
2022-09-22T21:14:47.211Z,10.63
2022-09-22T21:17:15.670Z,12.25
2022-09-22T21:19:43.415Z,9.88
2022-09-22T21:22:10.642Z,12.27
2022-09-22T21:24:37.672Z,7.45
2022-09-22T21:27:05.276Z,9.18
2022-09-22T21:29:32.401Z,8.63
2022-09-22T21:32:00.627Z,7.65
2022-09-22T21:34:27.823Z,8.35
2022-09-22T21:36:54.797Z,7.43
2022-09-22T21:39:21.725Z,8.32
2022-09-22T21:41:49.399Z,8.32
2022-09-22T21:44:16.363Z,8.05
2022-09-22T21:46:44.301Z,7.70
2022-09-22T21:49:11.486Z,8.85
2022-09-22T21:51:44.365Z,7.72
2022-09-22T21:54:17.780Z,8.75
2022-09-22T21:56:45.123Z,5.75
2022-09-22T21:59:13.671Z,8.23
2022-09-22T22:01:42.166Z,7.13
2022-09-22T22:04:13.527Z,6.97
2022-09-22T22:06:43.153Z,7.55
2022-09-22T22:09:20.092Z,9.20
2022-09-22T22:11:55.712Z,7.78
2022-09-22T22:14:24.427Z,6.25
2022-09-22T22:16:53.391Z,6.32
2022-09-22T22:19:22.542Z,6.18
2022-09-22T22:21:51.081Z,6.38
2022-09-22T22:24:42.542Z,6.22
2022-09-22T22:27:10.941Z,8.15
2022-09-22T22:29:41.118Z,6.80
2022-09-22T22:32:10.638Z,6.20
2022-09-22T22:34:37.989Z,5.85
2022-09-22T22:37:08.982Z,4.82
2022-09-22T22:39:35.863Z,7.43
2022-09-22T22:42:02.777Z,5.95
2022-09-22T22:44:29.690Z,8.10
2022-09-22T22:46:56.925Z,7.20
2022-09-22T22:49:23.936Z,5.45
2022-09-22T22:51:52.302Z,5.82
2022-09-22T22:54:19.212Z,5.35
2022-09-22T22:56:50.320Z,5.68
2022-09-22T22:59:18.221Z,5.82
2022-09-22T23:01:45.215Z,6.13
2022-09-22T23:04:12.691Z,5.90
2022-09-22T23:06:43.932Z,5.35
2022-09-22T23:09:14.151Z,6.32
2022-09-22T23:11:42.046Z,5.60
2022-09-22T23:14:11.702Z,5.70
2022-09-22T23:16:44.101Z,4.88
2022-09-22T23:19:17.004Z,4.95
2022-09-22T23:21:45.247Z,6.43
2022-09-22T23:24:17.270Z,4.85
2022-09-22T23:26:46.150Z,5.00
2022-09-22T23:29:13.335Z,5.97
2022-09-22T23:31:40.260Z,5.93
2022-09-22T23:34:07.138Z,5.50
2022-09-22T23:36:34.052Z,6.53
2022-09-22T23:39:04.021Z,6.63
2022-09-22T23:41:33.531Z,5.28
2022-09-22T23:44:00.580Z,6.88
2022-09-22T23:46:28.104Z,4.88
2022-09-22T23:48:55.737Z,5.40
2022-09-22T23:51:23.117Z,5.18
2022-09-22T23:53:50.107Z,4.97
2022-09-22T23:56:17.334Z,4.40
2022-09-22T23:58:45.496Z,5.05
